Time;durP1;ratioP1;P1;durP2;ratioP2;P2;SDS_P1;SDS_P2;PMS_P1;PMS_P2;Temp;Humidity;BMP_temperature;BMP_pressure;BME280_temperature;BME280_humidity;BME280_pressure;Samples;Min_cycle;Max_cycle;Signal;HPM_P1;HPM_P2
2022/02/04 00:01:40;;;;;;;16.58;8.48;;;;;;;;;;5029641;28;20132;-58
2022/02/04 00:23:34;;;;;;;18.02;9.18;;;;;;;;;;5033691;28;20029;-59
2022/02/04 00:33:48;;;;;;;13.35;7.30;;;;;;;;;;5059802;28;20033;-60
2022/02/04 00:36:25;;;;;;;11.02;6.57;;;;;;;;;;5034248;28;20543;-60
2022/02/04 00:38:54;;;;;;;14.30;7.45;;;;;;;;;;5026480;28;20029;-60
2022/02/04 00:41:25;;;;;;;14.52;7.63;;;;;;;;;;5031689;28;20029;-60
2022/02/04 00:43:53;;;;;;;13.32;7.43;;;;;;;;;;5029565;28;20045;-59
2022/02/04 00:46:27;;;;;;;14.25;7.28;;;;;;;;;;5024794;28;20130;-59
2022/02/04 00:54:15;;;;;;;12.05;6.75;;;;;;;;;;5030125;28;20053;-59
2022/02/04 01:13:21;;;;;;;17.00;8.15;;;;;;;;;;5033418;28;20045;-59
2022/02/04 01:26:43;;;;;;;16.75;8.48;;;;;;;;;;5031861;28;20040;-59
2022/02/04 01:29:10;;;;;;;18.00;9.10;;;;;;;;;;5029847;28;20381;-60
2022/02/04 01:31:35;;;;;;;16.17;8.43;;;;;;;;;;5027245;28;20021;-60
2022/02/04 01:34:01;;;;;;;16.15;9.15;;;;;;;;;;5029879;28;20033;-59
2022/02/04 01:36:26;;;;;;;19.50;9.63;;;;;;;;;;5031698;28;20025;-60
2022/02/04 01:38:52;;;;;;;22.45;9.75;;;;;;;;;;5035568;28;20048;-59
2022/02/04 01:41:17;;;;;;;19.80;9.45;;;;;;;;;;5052360;28;20022;-59
2022/02/04 01:43:43;;;;;;;17.17;8.90;;;;;;;;;;5034654;28;20037;-60
2022/02/04 01:46:11;;;;;;;18.92;10.48;;;;;;;;;;5033881;28;20494;-59
2022/02/04 01:48:38;;;;;;;15.73;8.65;;;;;;;;;;5033181;28;20056;-60
2022/02/04 01:51:05;;;;;;;17.45;8.98;;;;;;;;;;5029716;28;20088;-60
2022/02/04 01:53:31;;;;;;;14.77;8.75;;;;;;;;;;5031830;28;20053;-60
2022/02/04 01:56:00;;;;;;;16.85;9.00;;;;;;;;;;5035070;28;20097;-60
2022/02/04 01:58:26;;;;;;;16.63;8.77;;;;;;;;;;5033040;28;20025;-60
2022/02/04 02:00:52;;;;;;;16.52;8.45;;;;;;;;;;5020947;28;20044;-60
2022/02/04 02:03:18;;;;;;;17.45;8.57;;;;;;;;;;5029673;28;20033;-59
2022/02/04 02:05:44;;;;;;;16.20;8.50;;;;;;;;;;5034204;28;20061;-59
2022/02/04 02:08:16;;;;;;;16.25;8.30;;;;;;;;;;5030278;28;20053;-60
2022/02/04 02:10:46;;;;;;;14.95;8.20;;;;;;;;;;5026543;28;20056;-60
2022/02/04 02:58:29;;;;;;;22.20;10.63;;;;;;;;;;5025620;28;20037;-60
2022/02/04 03:01:03;;;;;;;20.23;10.45;;;;;;;;;;5019146;28;20034;-59
2022/02/04 03:03:31;;;;;;;20.58;10.30;;;;;;;;;;5026974;28;20508;-59
2022/02/04 03:05:57;;;;;;;20.35;10.10;;;;;;;;;;5031776;28;20112;-60
2022/02/04 03:08:22;;;;;;;17.88;8.98;;;;;;;;;;5031287;28;20099;-60
2022/02/04 03:10:53;;;;;;;19.67;10.10;;;;;;;;;;5032129;28;20040;-60
2022/02/04 03:13:24;;;;;;;16.58;8.00;;;;;;;;;;5031689;28;20056;-60
2022/02/04 03:15:58;;;;;;;15.85;8.55;;;;;;;;;;5035710;28;20310;-60
2022/02/04 03:18:25;;;;;;;16.60;8.32;;;;;;;;;;5028934;28;20033;-60
2022/02/04 03:20:54;;;;;;;15.77;9.07;;;;;;;;;;5036083;28;20033;-60
2022/02/04 03:23:21;;;;;;;17.00;8.48;;;;;;;;;;5035456;28;20024;-60
2022/02/04 03:25:54;;;;;;;14.23;8.10;;;;;;;;;;5034946;28;20119;-60
2022/02/04 03:28:25;;;;;;;15.40;8.10;;;;;;;;;;5029934;28;20029;-60
2022/02/04 03:30:52;;;;;;;17.17;8.23;;;;;;;;;;5032480;28;20033;-59
2022/02/04 03:33:21;;;;;;;16.33;8.40;;;;;;;;;;5031656;28;20041;-59
2022/02/04 03:35:46;;;;;;;16.63;8.02;;;;;;;;;;5033158;28;20100;-60
2022/02/04 03:38:11;;;;;;;14.65;7.80;;;;;;;;;;5030471;28;20215;-59
2022/02/04 03:40:37;;;;;;;16.63;8.65;;;;;;;;;;5031393;28;20064;-59
2022/02/04 03:43:02;;;;;;;17.27;8.93;;;;;;;;;;5029445;28;20344;-59
2022/02/04 03:45:28;;;;;;;15.68;8.27;;;;;;;;;;5031302;28;20091;-58
2022/02/04 03:47:53;;;;;;;14.23;8.50;;;;;;;;;;5030419;28;20048;-60
2022/02/04 03:50:19;;;;;;;14.13;7.65;;;;;;;;;;5027854;28;20416;-59
2022/02/04 03:52:44;;;;;;;17.45;7.90;;;;;;;;;;5029348;28;20022;-60
2022/02/04 03:55:10;;;;;;;15.40;8.90;;;;;;;;;;5029985;28;20386;-60
2022/02/04 03:57:37;;;;;;;15.85;8.35;;;;;;;;;;5025427;28;20071;-59
2022/02/04 04:00:09;;;;;;;16.02;7.95;;;;;;;;;;5026036;28;20038;-61
2022/02/04 04:02:34;;;;;;;16.88;8.25;;;;;;;;;;5021420;28;20559;-60
2022/02/04 04:05:00;;;;;;;15.20;8.13;;;;;;;;;;5032478;28;20025;-59
2022/02/04 04:07:25;;;;;;;14.82;8.50;;;;;;;;;;5028891;28;20079;-59
2022/02/04 04:09:57;;;;;;;14.75;7.93;;;;;;;;;;5030741;28;20025;-60
2022/02/04 04:12:24;;;;;;;14.10;7.72;;;;;;;;;;5030872;28;20036;-60
2022/02/04 04:14:53;;;;;;;15.77;8.18;;;;;;;;;;5030399;28;20132;-60
2022/02/04 04:17:19;;;;;;;14.67;7.80;;;;;;;;;;5025766;28;20031;-60
2022/02/04 04:19:44;;;;;;;14.05;7.72;;;;;;;;;;5031371;28;20284;-60
2022/02/04 04:22:10;;;;;;;13.90;7.63;;;;;;;;;;5034786;28;20032;-60
2022/02/04 04:24:35;;;;;;;17.88;9.85;;;;;;;;;;5033838;28;20128;-59
2022/02/04 04:27:00;;;;;;;13.68;8.25;;;;;;;;;;5031804;28;20028;-59
2022/02/04 04:29:26;;;;;;;14.20;7.95;;;;;;;;;;5032557;28;20047;-59
2022/02/04 04:31:51;;;;;;;14.32;8.02;;;;;;;;;;5028555;28;20382;-60
2022/02/04 04:34:17;;;;;;;15.52;8.93;;;;;;;;;;5032287;28;20032;-60
2022/02/04 04:36:43;;;;;;;16.80;9.30;;;;;;;;;;5029118;28;20407;-60
2022/02/04 04:39:21;;;;;;;18.52;8.88;;;;;;;;;;5027441;28;20065;-59
2022/02/04 05:29:54;;;;;;;15.57;8.15;;;;;;;;;;5032971;28;20021;-60
2022/02/04 05:32:20;;;;;;;16.77;7.90;;;;;;;;;;5032640;28;20021;-60
2022/02/04 05:34:47;;;;;;;13.40;7.93;;;;;;;;;;5031945;28;20699;-58
2022/02/04 05:37:14;;;;;;;14.38;7.60;;;;;;;;;;5023001;28;20137;-59
2022/02/04 05:39:51;;;;;;;12.32;7.40;;;;;;;;;;5030341;28;20030;-59
2022/02/04 05:42:21;;;;;;;14.48;7.85;;;;;;;;;;5031509;28;20029;-59
2022/02/04 05:44:54;;;;;;;;;;;;;;;;;;5027101;28;20508;-59
2022/02/04 05:47:20;;;;;;;14.38;7.55;;;;;;;;;;5028855;28;20432;-59
2022/02/04 05:52:34;;;;;;;10.85;6.18;;;;;;;;;;5030847;28;20128;-59
2022/02/04 05:55:17;;;;;;;15.15;7.20;;;;;;;;;;5033077;28;20043;-60
2022/02/04 06:24:31;;;;;;;16.65;8.27;;;;;;;;;;5028720;28;20043;-60
2022/02/04 06:26:57;;;;;;;21.88;9.13;;;;;;;;;;5037180;28;20132;-64
2022/02/04 06:29:23;;;;;;;16.98;8.07;;;;;;;;;;5033220;28;20044;-62
2022/02/04 06:31:49;;;;;;;14.77;8.35;;;;;;;;;;5024448;28;20037;-62
2022/02/04 06:34:15;;;;;;;18.95;9.23;;;;;;;;;;5030186;28;20099;-61
2022/02/04 06:36:41;;;;;;;16.40;8.88;;;;;;;;;;5034807;28;20131;-61
2022/02/04 06:39:06;;;;;;;18.55;8.60;;;;;;;;;;5029892;28;20055;-61
2022/02/04 06:41:32;;;;;;;22.15;9.32;;;;;;;;;;5032192;28;20056;-61
2022/02/04 06:44:01;;;;;;;18.58;9.60;;;;;;;;;;5035523;28;20052;-61
2022/02/04 06:46:27;;;;;;;;;;;;;;;;;;5032735;28;20112;-62
2022/02/04 06:48:52;;;;;;;15.35;8.32;;;;;;;;;;5035918;28;20043;-63
2022/02/04 06:51:18;;;;;;;15.75;9.02;;;;;;;;;;5031547;28;20722;-63
2022/02/04 06:53:43;;;;;;;17.30;8.77;;;;;;;;;;5025494;28;20026;-62
2022/02/04 06:56:08;;;;;;;14.13;7.38;;;;;;;;;;5035188;28;20546;-62
2022/02/04 06:58:34;;;;;;;14.90;8.10;;;;;;;;;;5031053;28;20033;-62
2022/02/04 07:01:00;;;;;;;17.08;8.30;;;;;;;;;;5029947;28;20105;-62
2022/02/04 07:03:25;;;;;;;20.50;8.50;;;;;;;;;;5030313;28;20021;-61
2022/02/04 07:05:56;;;;;;;24.05;8.98;;;;;;;;;;5034039;28;20148;-62
2022/02/04 07:08:40;;;;;;;17.70;8.70;;;;;;;;;;5028347;28;20071;-63
2022/02/04 07:14:10;;;;;;;16.13;9.13;;;;;;;;;;5033888;28;20025;-62
2022/02/04 07:16:55;;;;;;;16.42;8.73;;;;;;;;;;5030486;28;20037;-60
2022/02/04 07:22:05;;;;;;;17.85;8.95;;;;;;;;;;5037990;28;20043;-62
2022/02/04 07:24:30;;;;;;;18.98;9.57;;;;;;;;;;5033774;28;20025;-60
2022/02/04 07:26:56;;;;;;;52.50;15.18;;;;;;;;;;5036066;28;20032;-61
2022/02/04 07:29:21;;;;;;;34.58;13.82;;;;;;;;;;5036797;28;20471;-62
2022/02/04 07:31:48;;;;;;;21.65;9.32;;;;;;;;;;5034115;28;20060;-62
2022/02/04 07:42:42;;;;;;;19.85;9.30;;;;;;;;;;5034890;28;20188;-61
2022/02/04 07:45:08;;;;;;;20.75;9.52;;;;;;;;;;5034350;28;20498;-62
2022/02/04 07:47:34;;;;;;;26.33;11.15;;;;;;;;;;5024443;28;20032;-62
2022/02/04 07:50:00;;;;;;;23.30;10.40;;;;;;;;;;5029493;28;20079;-63
2022/02/04 07:52:25;;;;;;;30.08;11.73;;;;;;;;;;5035139;28;20025;-61
2022/02/04 07:54:51;;;;;;;21.27;9.77;;;;;;;;;;5026500;28;20083;-62
2022/02/04 07:57:16;;;;;;;32.28;11.70;;;;;;;;;;5025015;28;20392;-62
2022/02/04 07:59:43;;;;;;;23.92;10.52;;;;;;;;;;5028475;28;20095;-63
2022/02/04 08:02:08;;;;;;;43.67;13.13;;;;;;;;;;5030260;28;20140;-62
2022/02/04 08:04:36;;;;;;;18.70;9.35;;;;;;;;;;5029475;28;20425;-61
2022/02/04 08:07:09;;;;;;;29.25;11.85;;;;;;;;;;5029815;28;20140;-61
2022/02/04 08:09:58;;;;;;;40.67;14.48;;;;;;;;;;5033464;28;20021;-62
2022/02/04 08:12:44;;;;;;;25.52;11.10;;;;;;;;;;5032835;28;20029;-62
2022/02/04 08:15:40;;;;;;;20.52;10.45;;;;;;;;;;5028425;28;20052;-62
2022/02/04 08:21:16;;;;;;;20.48;9.98;;;;;;;;;;5026882;28;20086;-62
2022/02/04 08:37:01;;;;;;;18.52;9.77;;;;;;;;;;5031687;28;20033;-62
2022/02/04 08:52:59;;;;;;;15.68;7.60;;;;;;;;;;5027981;28;20028;-62
2022/02/04 08:55:36;;;;;;;14.93;8.00;;;;;;;;;;5028909;28;20144;-61
2022/02/04 08:58:24;;;;;;;30.00;11.05;;;;;;;;;;5028510;28;20029;-61
2022/02/04 09:01:10;;;;;;;47.33;15.40;;;;;;;;;;5025023;28;20389;-62
2022/02/04 09:06:15;;;;;;;19.35;9.45;;;;;;;;;;5032603;28;20115;-62
2022/02/04 09:08:47;;;;;;;35.78;12.10;;;;;;;;;;5029106;28;20731;-61
2022/02/04 09:11:17;;;;;;;24.40;9.55;;;;;;;;;;5030624;28;20530;-62
2022/02/04 09:19:20;;;;;;;18.67;8.65;;;;;;;;;;5032815;28;20075;-63
2022/02/04 09:24:12;;;;;;;16.02;6.82;;;;;;;;;;5029868;28;20408;-61
2022/02/04 09:26:39;;;;;;;42.63;11.40;;;;;;;;;;5030853;28;20112;-62
2022/02/04 09:29:05;;;;;;;21.67;9.57;;;;;;;;;;5029368;28;20415;-62
2022/02/04 09:31:31;;;;;;;16.33;7.20;;;;;;;;;;5031237;28;20039;-61
2022/02/04 09:33:56;;;;;;;15.90;8.15;;;;;;;;;;5030867;28;20035;-62
2022/02/04 09:36:22;;;;;;;12.95;6.90;;;;;;;;;;5031287;28;20037;-60
2022/02/04 09:38:47;;;;;;;21.25;7.78;;;;;;;;;;5028892;28;20032;-60
2022/02/04 09:41:13;;;;;;;23.38;9.48;;;;;;;;;;5026271;28;20210;-63
2022/02/04 09:43:38;;;;;;;12.18;5.45;;;;;;;;;;5028599;28;20048;-63
2022/02/04 09:46:06;;;;;;;8.57;5.57;;;;;;;;;;5032780;28;20021;-63
2022/02/04 09:48:32;;;;;;;13.50;5.55;;;;;;;;;;5032636;28;20173;-64
2022/02/04 09:50:58;;;;;;;11.60;5.88;;;;;;;;;;5031337;28;20171;-63
2022/02/04 10:18:11;;;;;;;7.03;4.00;;;;;;;;;;5024277;28;20129;-60
2022/02/04 10:20:41;;;;;;;6.18;3.53;;;;;;;;;;5028351;28;20028;-64
2022/02/04 10:23:07;;;;;;;8.88;3.50;;;;;;;;;;5031447;28;20025;-63
2022/02/04 10:25:37;;;;;;;5.13;3.10;;;;;;;;;;5030777;28;20412;-64
2022/02/04 10:28:04;;;;;;;3.55;2.80;;;;;;;;;;5029250;28;20449;-62
2022/02/04 10:30:32;;;;;;;8.10;4.10;;;;;;;;;;5030539;28;20495;-62
2022/02/04 10:32:59;;;;;;;4.63;2.80;;;;;;;;;;5032470;28;20040;-62
2022/02/04 10:35:36;;;;;;;4.97;3.45;;;;;;;;;;5033475;28;20033;-62
2022/02/04 11:04:24;;;;;;;2.97;2.13;;;;;;;;;;5034761;28;20075;-63
2022/02/04 11:21:58;;;;;;;;;;;;;;;;;;;;;
2022/02/04 11:35:30;;;;;;;5.15;2.92;;;;;;;;;;5026958;28;20488;-61
2022/02/04 11:54:55;;;;;;;4.32;2.67;;;;;;;;;;5031345;28;20537;-62
2022/02/04 11:57:25;;;;;;;4.15;2.63;;;;;;;;;;5030466;28;20143;-61
2022/02/04 11:59:59;;;;;;;5.90;2.90;;;;;;;;;;5033673;28;20041;-62
2022/02/04 12:02:28;;;;;;;5.15;2.83;;;;;;;;;;5026543;28;20101;-63
2022/02/04 12:05:17;;;;;;;5.03;2.90;;;;;;;;;;5034122;28;20113;-62
2022/02/04 12:07:57;;;;;;;6.85;3.53;;;;;;;;;;5025192;28;20703;-62
2022/02/04 12:10:34;;;;;;;7.10;3.95;;;;;;;;;;5027557;28;20027;-62
2022/02/04 12:13:09;;;;;;;4.40;2.63;;;;;;;;;;5033112;28;20025;-60
2022/02/04 12:15:48;;;;;;;4.82;2.50;;;;;;;;;;5030586;28;20068;-62
2022/02/04 12:18:22;;;;;;;11.27;4.47;;;;;;;;;;5031562;28;20379;-61
2022/02/04 12:20:53;;;;;;;7.43;3.60;;;;;;;;;;5036777;28;20021;-61
2022/02/04 12:23:40;;;;;;;6.60;3.72;;;;;;;;;;5029638;28;20109;-63
2022/02/04 12:26:08;;;;;;;11.65;4.97;;;;;;;;;;5033846;28;20364;-62
2022/02/04 12:28:41;;;;;;;8.45;4.00;;;;;;;;;;5034120;28;20041;-61
2022/02/04 12:31:32;;;;;;;5.53;2.83;;;;;;;;;;5035571;28;20026;-62
2022/02/04 12:34:11;;;;;;;8.70;3.20;;;;;;;;;;5032111;28;20218;-61
2022/02/04 12:36:38;;;;;;;;;;;;;;;;;;5028290;28;20188;-63
2022/02/04 12:39:05;;;;;;;16.65;4.55;;;;;;;;;;5028556;28;19935;-61
2022/02/04 12:41:36;;;;;;;11.02;3.97;;;;;;;;;;5032932;28;20025;-62
2022/02/04 12:44:06;;;;;;;7.18;4.03;;;;;;;;;;5033282;28;20145;-62
2022/02/04 12:46:33;;;;;;;25.98;8.13;;;;;;;;;;5028077;28;20045;-63
2022/02/04 12:49:01;;;;;;;13.00;4.43;;;;;;;;;;5026136;28;20400;-62
2022/02/04 12:54:12;;;;;;;7.88;3.35;;;;;;;;;;5028193;28;20507;-61
2022/02/04 12:56:54;;;;;;;5.82;3.05;;;;;;;;;;5028286;28;20048;-62
2022/02/04 13:07:36;;;;;;;3.25;2.25;;;;;;;;;;5034454;28;20037;-62
2022/02/04 13:10:03;;;;;;;10.20;3.25;;;;;;;;;;5031321;28;20037;-61
2022/02/04 13:12:28;;;;;;;21.83;6.93;;;;;;;;;;5027160;28;20033;-61
2022/02/04 13:14:54;;;;;;;4.35;2.33;;;;;;;;;;5032490;28;20036;-63
2022/02/04 13:17:38;;;;;;;2.55;1.77;;;;;;;;;;5026888;28;20032;-63
2022/02/04 13:20:04;;;;;;;3.67;2.20;;;;;;;;;;5028845;28;20361;-60
2022/02/04 13:22:30;;;;;;;5.78;2.42;;;;;;;;;;5030185;28;20026;-62
2022/02/04 13:25:12;;;;;;;9.95;4.03;;;;;;;;;;5037630;28;20051;-61
2022/02/04 13:27:38;;;;;;;2.70;1.90;;;;;;;;;;5030929;28;20027;-62
2022/02/04 13:30:26;;;;;;;4.32;2.60;;;;;;;;;;5025602;28;20413;-62
2022/02/04 13:32:52;;;;;;;15.52;5.93;;;;;;;;;;5030679;28;20037;-60
2022/02/04 13:35:28;;;;;;;10.00;4.43;;;;;;;;;;5041243;28;20362;-60
2022/02/04 13:37:58;;;;;;;5.40;2.67;;;;;;;;;;5032865;28;20520;-61
2022/02/04 13:40:43;;;;;;;7.28;2.55;;;;;;;;;;5040418;28;20034;-61
2022/02/04 13:43:29;;;;;;;4.32;2.70;;;;;;;;;;5035844;28;20055;-62
2022/02/04 13:46:01;;;;;;;7.57;3.58;;;;;;;;;;5051501;28;20461;-61
2022/02/04 13:48:43;;;;;;;4.15;2.90;;;;;;;;;;5031222;28;20037;-60
2022/02/04 13:51:26;;;;;;;6.22;2.90;;;;;;;;;;5033348;28;20079;-61
2022/02/04 13:54:23;;;;;;;5.07;2.97;;;;;;;;;;5031428;28;20075;-62
2022/02/04 13:57:07;;;;;;;6.32;3.10;;;;;;;;;;5033125;28;20429;-62
2022/02/04 13:59:42;;;;;;;9.52;3.70;;;;;;;;;;5031990;28;20025;-62
2022/02/04 14:02:21;;;;;;;5.35;3.22;;;;;;;;;;5035964;28;20633;-62
2022/02/04 14:05:00;;;;;;;7.53;3.55;;;;;;;;;;5032318;28;20041;-63
2022/02/04 14:08:02;;;;;;;7.63;3.40;;;;;;;;;;5028456;28;20022;-62
2022/02/04 14:10:31;;;;;;;6.90;3.42;;;;;;;;;;5036193;28;20140;-61
2022/02/04 14:13:10;;;;;;;6.38;3.35;;;;;;;;;;5032836;28;20028;-61
2022/02/04 14:15:38;;;;;;;5.38;3.50;;;;;;;;;;5034173;28;21625;-61
2022/02/04 14:18:10;;;;;;;6.03;3.40;;;;;;;;;;5035913;28;20028;-61
2022/02/04 14:20:39;;;;;;;5.80;3.83;;;;;;;;;;5032535;28;20025;-60
2022/02/04 14:23:06;;;;;;;4.80;3.07;;;;;;;;;;5029227;28;20091;-61
2022/02/04 14:25:42;;;;;;;7.28;3.05;;;;;;;;;;5036541;28;20306;-61
2022/02/04 14:28:10;;;;;;;6.75;3.40;;;;;;;;;;5038783;28;20040;-62
2022/02/04 14:30:37;;;;;;;5.72;3.40;;;;;;;;;;5038754;28;20031;-61
2022/02/04 14:33:52;;;;;;;8.50;3.50;;;;;;;;;;5036003;28;20040;-61
2022/02/04 14:36:12;;;;;;;10.82;5.78;;;;;;;;;;5028152;28;20025;-61
2022/02/04 14:50:19;;;;;;;9.98;4.40;;;;;;;;;;5031185;28;20460;-63
2022/02/04 15:01:02;;;;;;;6.30;3.08;;;;;;;;;;5033036;28;20569;-61
2022/02/04 15:06:05;;;;;;;4.00;1.98;;;;;;;;;;5033585;28;20033;-62
2022/02/04 15:08:35;;;;;;;2.75;2.15;;;;;;;;;;5029508;28;20489;-62
2022/02/04 15:11:04;;;;;;;4.38;2.25;;;;;;;;;;5035829;28;20029;-62
2022/02/04 15:13:31;;;;;;;4.95;2.30;;;;;;;;;;5036494;28;20026;-61
2022/02/04 15:15:59;;;;;;;4.22;1.83;;;;;;;;;;5030958;28;20036;-62
2022/02/04 15:18:25;;;;;;;2.80;1.70;;;;;;;;;;5035459;28;20135;-62
2022/02/04 15:20:57;;;;;;;3.03;1.75;;;;;;;;;;5038495;28;20029;-62
2022/02/04 15:23:23;;;;;;;4.47;1.80;;;;;;;;;;5034159;28;20033;-62
2022/02/04 15:25:52;;;;;;;1.67;1.40;;;;;;;;;;5028805;28;20524;-61
2022/02/04 15:28:39;;;;;;;7.20;3.85;;;;;;;;;;5029023;28;20442;-62
2022/02/04 15:31:06;;;;;;;1.27;1.13;;;;;;;;;;5031726;28;20029;-62
2022/02/04 15:33:35;;;;;;;2.90;1.40;;;;;;;;;;5031033;28;20039;-62
2022/02/04 15:36:01;;;;;;;2.65;1.40;;;;;;;;;;5031479;28;20029;-61
2022/02/04 15:38:27;;;;;;;4.43;2.00;;;;;;;;;;5036178;28;20036;-63
2022/02/04 15:40:52;;;;;;;10.45;3.42;;;;;;;;;;5031650;28;20403;-62
2022/02/04 15:43:18;;;;;;;4.25;1.80;;;;;;;;;;5028229;28;20051;-61
2022/02/04 15:48:33;;;;;;;3.28;2.10;;;;;;;;;;5030190;28;20024;-61
2022/02/04 15:53:51;;;;;;;4.25;2.33;;;;;;;;;;5032512;28;20481;-61
2022/02/04 15:59:22;;;;;;;;;;;;;;;;;;;;;
2022/02/04 16:01:56;;;;;;;6.63;4.50;;;;;;;;;;5031922;28;20043;-61
2022/02/04 16:04:26;;;;;;;5.13;2.20;;;;;;;;;;5031431;28;20500;-62
2022/02/04 16:06:52;;;;;;;3.78;2.28;;;;;;;;;;5029398;28;20111;-62
2022/02/04 16:09:20;;;;;;;1.52;1.30;;;;;;;;;;5033628;28;20044;-62
2022/02/04 16:16:45;;;;;;;3.15;2.40;;;;;;;;;;5034644;28;20330;-61
2022/02/04 16:19:27;;;;;;;1.77;1.52;;;;;;;;;;5031809;28;20476;-61
2022/02/04 16:25:08;;;;;;;1.40;1.00;;;;;;;;;;5033180;28;20026;-62
2022/02/04 16:29:49;;;;;;;1.90;1.05;;;;;;;;;;5032613;28;20021;-62
2022/02/04 16:32:15;;;;;;;2.13;1.48;;;;;;;;;;5031730;28;20072;-62
2022/02/04 16:34:42;;;;;;;2.33;1.48;;;;;;;;;;5028502;28;20064;-62
2022/02/04 16:37:17;;;;;;;1.60;1.10;;;;;;;;;;5035585;28;20538;-62
2022/02/04 16:39:45;;;;;;;2.28;1.52;;;;;;;;;;5034242;28;20400;-61
2022/02/04 16:42:15;;;;;;;3.88;1.77;;;;;;;;;;5030987;28;20500;-61
2022/02/04 16:44:41;;;;;;;2.13;1.10;;;;;;;;;;5027081;28;20029;-61
2022/02/04 16:47:07;;;;;;;1.30;1.00;;;;;;;;;;5030729;28;20469;-60
2022/02/04 16:49:32;;;;;;;3.45;1.98;;;;;;;;;;5029648;28;20037;-62
2022/02/04 16:51:59;;;;;;;2.67;1.75;;;;;;;;;;5029768;28;20045;-63
2022/02/04 16:54:26;;;;;;;4.68;2.50;;;;;;;;;;5044956;28;20075;-63
2022/02/04 16:56:53;;;;;;;5.72;3.33;;;;;;;;;;5032217;28;20025;-62
2022/02/04 16:59:19;;;;;;;1.67;1.30;;;;;;;;;;5027991;28;20403;-62
2022/02/04 17:01:45;;;;;;;2.97;1.80;;;;;;;;;;5030778;28;20026;-62
2022/02/04 17:04:12;;;;;;;6.22;2.33;;;;;;;;;;5028447;28;20021;-61
2022/02/04 17:06:41;;;;;;;13.38;6.15;;;;;;;;;;5021977;28;20025;-60
2022/02/04 17:11:50;;;;;;;7.85;3.85;;;;;;;;;;5029936;28;20033;-62
2022/02/04 17:14:16;;;;;;;2.33;1.35;;;;;;;;;;5030055;28;20043;-63
2022/02/04 17:16:42;;;;;;;2.05;1.40;;;;;;;;;;5027888;28;20083;-62
2022/02/04 17:19:23;;;;;;;7.40;3.65;;;;;;;;;;5037586;28;20029;-62
2022/02/04 17:21:50;;;;;;;21.65;8.65;;;;;;;;;;5034359;28;20075;-62
2022/02/04 17:24:16;;;;;;;8.93;4.07;;;;;;;;;;5026374;28;20034;-62
2022/02/04 17:26:42;;;;;;;5.40;2.08;;;;;;;;;;5034162;28;20029;-62
2022/02/04 17:29:12;;;;;;;2.70;1.90;;;;;;;;;;5034635;28;20025;-61
2022/02/04 17:31:38;;;;;;;4.20;2.55;;;;;;;;;;5027449;28;20033;-62
2022/02/04 17:34:06;;;;;;;3.10;1.77;;;;;;;;;;5030692;28;20392;-60
2022/02/04 17:36:37;;;;;;;3.08;2.28;;;;;;;;;;5030739;28;20501;-61
2022/02/04 17:39:24;;;;;;;4.30;2.70;;;;;;;;;;5031219;28;20494;-62
2022/02/04 17:41:52;;;;;;;3.47;1.40;;;;;;;;;;5025478;28;20040;-61
2022/02/04 17:44:19;;;;;;;1.73;1.30;;;;;;;;;;5030329;28;20021;-62
2022/02/04 17:46:46;;;;;;;4.18;2.30;;;;;;;;;;5028938;28;20029;-62
2022/02/04 17:49:19;;;;;;;3.95;2.00;;;;;;;;;;5028436;28;20029;-62
2022/02/04 17:51:56;;;;;;;3.38;2.08;;;;;;;;;;5029245;28;20055;-60
2022/02/04 17:54:31;;;;;;;1.88;1.48;;;;;;;;;;5025405;28;20021;-61
2022/02/04 18:02:00;;;;;;;3.05;1.83;;;;;;;;;;5031957;28;20036;-62
2022/02/04 18:07:24;;;;;;;2.53;1.63;;;;;;;;;;5025686;28;20032;-62
2022/02/04 18:09:50;;;;;;;3.25;1.33;;;;;;;;;;5025724;28;20048;-62
2022/02/04 18:12:21;;;;;;;2.88;1.70;;;;;;;;;;5027872;28;20460;-62
2022/02/04 18:14:48;;;;;;;1.83;1.40;;;;;;;;;;5037823;28;20074;-61
2022/02/04 18:17:14;;;;;;;2.00;1.17;;;;;;;;;;5033533;28;20026;-62
2022/02/04 18:19:40;;;;;;;2.22;1.30;;;;;;;;;;5038563;28;20076;-63
2022/02/04 18:22:06;;;;;;;3.63;1.48;;;;;;;;;;5039475;28;20191;-63
2022/02/04 18:24:31;;;;;;;1.20;1.00;;;;;;;;;;5037351;28;20227;-62
2022/02/04 18:26:57;;;;;;;2.25;1.23;;;;;;;;;;5035872;28;20037;-62
2022/02/04 18:29:23;;;;;;;2.40;1.40;;;;;;;;;;5031761;28;20025;-63
2022/02/04 18:31:48;;;;;;;16.70;6.95;;;;;;;;;;5031528;28;20104;-63
2022/02/04 18:34:16;;;;;;;2.03;1.42;;;;;;;;;;5033479;28;20025;-62
2022/02/04 18:36:42;;;;;;;2.67;1.40;;;;;;;;;;5030214;28;20047;-62
2022/02/04 18:42:21;;;;;;;1.52;1.20;;;;;;;;;;5032172;28;20029;-63
2022/02/04 18:44:49;;;;;;;2.35;1.55;;;;;;;;;;5028363;28;20041;-62
2022/02/04 18:47:27;;;;;;;2.80;1.63;;;;;;;;;;5029840;28;20048;-62
2022/02/04 18:50:02;;;;;;;7.10;3.45;;;;;;;;;;5032248;28;20036;-63
2022/02/04 18:57:37;;;;;;;2.40;1.60;;;;;;;;;;5034024;28;20437;-62
2022/02/04 19:00:12;;;;;;;2.97;1.83;;;;;;;;;;5037376;28;20025;-63
2022/02/04 19:02:40;;;;;;;5.80;2.05;;;;;;;;;;5030903;28;20025;-62
2022/02/04 19:05:18;;;;;;;4.43;1.30;;;;;;;;;;5029677;28;20049;-63
2022/02/04 19:10:10;;;;;;;3.42;2.08;;;;;;;;;;5036097;28;20033;-62
2022/02/04 19:12:50;;;;;;;2.20;1.55;;;;;;;;;;5029379;28;20025;-60
2022/02/04 19:17:52;;;;;;;2.03;1.38;;;;;;;;;;5032375;28;20040;-62
2022/02/04 19:20:34;;;;;;;5.10;2.45;;;;;;;;;;5031552;28;20037;-62
2022/02/04 19:23:05;;;;;;;8.77;4.00;;;;;;;;;;5027776;28;20095;-61
2022/02/04 19:25:35;;;;;;;2.17;1.30;;;;;;;;;;5032925;28;20025;-63
2022/02/04 19:28:01;;;;;;;1.63;1.30;;;;;;;;;;5028557;28;20121;-62
2022/02/04 19:30:26;;;;;;;4.28;1.75;;;;;;;;;;5033488;28;20571;-61
2022/02/04 19:32:55;;;;;;;4.32;2.00;;;;;;;;;;5038935;28;20032;-60
2022/02/04 19:35:20;;;;;;;1.70;1.20;;;;;;;;;;5035844;28;20021;-62
2022/02/04 19:37:46;;;;;;;1.20;1.10;;;;;;;;;;5032723;28;20028;-61
2022/02/04 19:40:12;;;;;;;1.77;1.30;;;;;;;;;;5037925;28;20480;-61
2022/02/04 19:42:42;;;;;;;2.08;1.15;;;;;;;;;;5029990;28;20442;-61
2022/02/04 19:45:13;;;;;;;1.75;1.25;;;;;;;;;;5030862;28;20112;-61
2022/02/04 19:47:52;;;;;;;4.25;1.88;;;;;;;;;;5027987;28;20033;-62
2022/02/04 19:50:29;;;;;;;3.88;1.48;;;;;;;;;;5035508;28;20379;-62
2022/02/04 20:25:07;;;;;;;3.30;1.55;;;;;;;;;;5029851;28;20052;-60
2022/02/04 20:27:41;;;;;;;3.72;1.70;;;;;;;;;;5035244;28;20487;-60
2022/02/04 20:30:10;;;;;;;2.53;1.27;;;;;;;;;;5029046;28;20104;-60
2022/02/04 20:32:37;;;;;;;4.20;1.70;;;;;;;;;;5026879;28;20052;-61
2022/02/04 20:35:03;;;;;;;3.20;1.85;;;;;;;;;;5029550;28;20032;-61
2022/02/04 20:37:30;;;;;;;2.03;1.20;;;;;;;;;;5034213;28;20056;-61
2022/02/04 20:40:03;;;;;;;2.35;1.65;;;;;;;;;;5028691;28;20073;-60
2022/02/04 20:42:29;;;;;;;1.70;1.25;;;;;;;;;;5025700;28;20047;-59
2022/02/04 20:44:55;;;;;;;1.73;1.30;;;;;;;;;;5032645;28;20113;-60
2022/02/04 20:47:21;;;;;;;2.30;1.38;;;;;;;;;;5034003;28;20039;-61
2022/02/04 20:49:47;;;;;;;2.60;1.45;;;;;;;;;;5028088;28;20112;-60
2022/02/04 20:52:14;;;;;;;4.80;1.92;;;;;;;;;;5027852;28;20151;-60
2022/02/04 20:54:41;;;;;;;3.60;1.92;;;;;;;;;;5033983;28;20136;-60
2022/02/04 20:57:06;;;;;;;2.58;1.50;;;;;;;;;;5033929;28;20035;-60
2022/02/04 20:59:39;;;;;;;7.10;1.73;;;;;;;;;;5025549;28;20108;-60
2022/02/04 21:02:05;;;;;;;1.63;1.20;;;;;;;;;;5029670;28;20037;-61
2022/02/04 21:04:34;;;;;;;3.88;1.60;;;;;;;;;;5026381;28;20111;-61
2022/02/04 21:07:04;;;;;;;2.63;1.25;;;;;;;;;;5029354;28;20121;-60
2022/02/04 21:15:06;;;;;;;1.90;1.30;;;;;;;;;;5026901;28;20036;-60
2022/02/04 21:17:37;;;;;;;2.05;1.15;;;;;;;;;;5030454;28;20030;-61
2022/02/04 21:20:05;;;;;;;1.88;1.10;;;;;;;;;;5028262;28;20469;-61
2022/02/04 21:22:30;;;;;;;1.77;1.15;;;;;;;;;;5035171;28;20029;-60
2022/02/04 21:24:57;;;;;;;2.28;1.33;;;;;;;;;;5027887;28;20235;-60
2022/02/04 21:27:22;;;;;;;2.70;1.60;;;;;;;;;;5026306;28;20128;-61
2022/02/04 21:29:48;;;;;;;3.35;1.23;;;;;;;;;;5036472;28;20097;-61
2022/02/04 21:32:13;;;;;;;3.25;1.30;;;;;;;;;;5028637;28;20103;-60
2022/02/04 21:37:07;;;;;;;3.10;1.70;;;;;;;;;;5034322;28;20127;-61
2022/02/04 21:39:34;;;;;;;2.47;1.20;;;;;;;;;;5025673;28;20029;-61
2022/02/04 21:42:03;;;;;;;2.40;1.48;;;;;;;;;;5026780;28;20021;-60
2022/02/04 21:44:29;;;;;;;2.85;1.20;;;;;;;;;;5030767;28;20225;-62
2022/02/04 21:46:54;;;;;;;2.22;1.40;;;;;;;;;;5025368;28;20034;-61
2022/02/04 21:49:28;;;;;;;2.15;1.35;;;;;;;;;;5028398;28;20166;-61
2022/02/04 21:51:53;;;;;;;1.90;1.20;;;;;;;;;;5033672;28;20037;-60
2022/02/04 21:54:19;;;;;;;2.17;1.20;;;;;;;;;;5036854;28;20468;-60
2022/02/04 21:56:44;;;;;;;2.88;1.65;;;;;;;;;;5028546;28;20033;-60
2022/02/04 21:59:10;;;;;;;3.10;1.73;;;;;;;;;;5048879;28;20037;-60
2022/02/04 22:01:38;;;;;;;2.20;1.40;;;;;;;;;;5028694;28;20025;-60
2022/02/04 22:04:05;;;;;;;2.67;1.40;;;;;;;;;;5037426;28;20045;-60
2022/02/04 22:06:31;;;;;;;2.63;1.70;;;;;;;;;;5036814;28;20476;-61
2022/02/04 22:09:06;;;;;;;3.25;1.60;;;;;;;;;;5033848;28;20108;-60
2022/02/04 22:22:31;;;;;;;5.32;1.90;;;;;;;;;;5038227;28;20596;-60
2022/02/04 22:24:57;;;;;;;3.67;1.77;;;;;;;;;;5037084;28;20021;-59
2022/02/04 22:27:22;;;;;;;3.97;1.85;;;;;;;;;;5030899;28;20056;-60
2022/02/04 22:40:46;;;;;;;2.88;1.80;;;;;;;;;;5035140;28;20039;-60
2022/02/04 22:49:03;;;;;;;3.60;2.08;;;;;;;;;;5028493;28;20405;-59